createdAt,value
2023-04-06T00:02:12.709Z,-2.65
2023-04-06T00:04:40.227Z,-2.72
2023-04-06T00:07:07.555Z,-2.86
2023-04-06T00:09:35.183Z,-3.06
2023-04-06T00:12:03.775Z,-3.15
2023-04-06T00:14:33.192Z,-2.94
2023-04-06T00:17:01.724Z,-2.77
2023-04-06T00:19:30.056Z,-2.59
2023-04-06T00:21:57.599Z,-2.66
2023-04-06T00:24:25.959Z,-2.73
2023-04-06T00:26:53.511Z,-2.48
2023-04-06T00:29:21.239Z,-2.39
2023-04-06T00:31:49.495Z,-2.45
2023-04-06T00:34:17.922Z,-2.57
2023-04-06T00:36:46.351Z,-2.56
2023-04-06T00:39:13.841Z,-2.64
2023-04-06T00:41:49.331Z,-2.71
2023-04-06T00:44:17.026Z,-2.81
2023-04-06T00:46:46.859Z,-2.93
2023-04-06T00:49:14.447Z,-3.04
2023-04-06T00:51:42.965Z,-3.31
2023-04-06T00:54:17.097Z,-3.32
2023-04-06T00:56:45.816Z,-3.38
2023-04-06T00:59:13.787Z,-2.91
2023-04-06T01:01:41.648Z,-2.85
2023-04-06T01:04:10.195Z,-2.97
2023-04-06T01:06:37.513Z,-2.97
2023-04-06T01:09:07.178Z,-3.07
2023-04-06T01:11:34.824Z,-3.10
2023-04-06T01:14:02.263Z,-3.07
2023-04-06T01:16:30.849Z,-3.11
2023-04-06T01:19:11.990Z,-3.12
2023-04-06T01:21:40.769Z,-3.11
2023-04-06T01:24:09.340Z,-3.07
2023-04-06T01:26:36.924Z,-3.18
2023-04-06T01:29:05.612Z,-3.34
2023-04-06T01:31:33.689Z,-3.33
2023-04-06T01:34:01.493Z,-3.28
2023-04-06T01:36:35.110Z,-3.31
2023-04-06T01:39:03.611Z,-3.41
2023-04-06T01:41:31.041Z,-3.45
2023-04-06T01:43:58.444Z,-3.40
2023-04-06T01:46:25.950Z,-3.50
2023-04-06T01:48:54.353Z,-3.55
2023-04-06T01:51:22.931Z,-3.54
2023-04-06T01:53:50.724Z,-3.58
2023-04-06T01:56:18.252Z,-3.68
2023-04-06T01:58:45.884Z,-3.51
2023-04-06T02:01:13.185Z,-3.28
2023-04-06T02:03:40.610Z,-3.19
2023-04-06T02:06:08.120Z,-3.44
2023-04-06T02:08:35.701Z,-3.55
2023-04-06T02:11:04.102Z,-3.60
2023-04-06T02:13:31.634Z,-3.74
2023-04-06T02:15:59.369Z,-3.75
2023-04-06T02:18:27.025Z,-3.78
2023-04-06T02:20:54.497Z,-3.79
2023-04-06T02:23:22.856Z,-3.74
2023-04-06T02:25:50.404Z,-3.77
2023-04-06T02:28:18.852Z,-3.87
2023-04-06T02:30:46.593Z,-3.63
2023-04-06T02:33:13.666Z,-3.46
2023-04-06T02:35:41.317Z,-3.31
2023-04-06T02:38:08.605Z,-3.61
2023-04-06T02:40:36.063Z,-3.90
2023-04-06T02:43:03.506Z,-4.07
2023-04-06T02:45:31.177Z,-4.20
2023-04-06T02:47:58.590Z,-4.14
2023-04-06T02:50:27.945Z,-3.91
2023-04-06T02:52:55.490Z,-3.91
2023-04-06T02:55:23.075Z,-4.06
2023-04-06T02:57:50.340Z,-4.12
2023-04-06T03:00:19.210Z,-4.10
2023-04-06T03:02:46.488Z,-4.09
2023-04-06T03:05:13.709Z,-3.92
2023-04-06T03:07:40.977Z,-3.72
2023-04-06T03:10:11.110Z,-3.83
2023-04-06T03:12:38.785Z,-3.90
2023-04-06T03:15:07.503Z,-4.02
2023-04-06T03:17:34.705Z,-4.12
2023-04-06T03:20:02.059Z,-4.14
2023-04-06T03:22:30.442Z,-4.26
2023-04-06T03:24:57.995Z,-4.30
2023-04-06T03:27:26.458Z,-4.13
2023-04-06T03:29:55.025Z,-4.15
2023-04-06T03:32:28.035Z,-4.12
2023-04-06T03:34:55.613Z,-4.30
2023-04-06T03:37:25.015Z,-4.32
2023-04-06T03:39:53.292Z,-4.19
2023-04-06T03:42:21.706Z,-4.35
2023-04-06T03:44:48.908Z,-4.41
2023-04-06T03:47:16.450Z,-4.60
2023-04-06T03:49:45.914Z,-4.38
2023-04-06T03:52:13.421Z,-4.37
2023-04-06T03:54:41.070Z,-4.22
2023-04-06T03:57:08.440Z,-4.14
2023-04-06T03:59:35.753Z,-4.06
2023-04-06T04:02:03.230Z,-4.12
2023-04-06T04:04:30.628Z,-4.17
2023-04-06T04:06:57.693Z,-4.30
2023-04-06T04:09:25.487Z,-4.46
2023-04-06T04:11:54.620Z,-4.64
2023-04-06T04:14:22.204Z,-4.41
2023-04-06T04:16:49.576Z,-4.29
2023-04-06T04:19:17.864Z,-4.51
2023-04-06T04:21:47.250Z,-4.52
2023-04-06T04:24:15.060Z,-4.37
2023-04-06T04:26:42.589Z,-4.36
2023-04-06T04:29:11.258Z,-4.40
2023-04-06T04:31:38.383Z,-4.60
2023-04-06T04:34:08.140Z,-4.75
2023-04-06T04:36:36.417Z,-4.86
2023-04-06T04:39:03.940Z,-4.89
2023-04-06T04:41:31.522Z,-4.80
2023-04-06T04:43:59.849Z,-4.81
2023-04-06T04:46:29.216Z,-4.88
2023-04-06T04:48:57.891Z,-4.84
2023-04-06T04:51:26.415Z,-4.77
2023-04-06T04:53:55.580Z,-4.73
2023-04-06T04:56:22.636Z,-4.56
2023-04-06T04:58:51.409Z,-4.48
2023-04-06T05:01:18.993Z,-4.30
2023-04-06T05:03:46.535Z,-4.22
2023-04-06T05:06:13.948Z,-4.27
2023-04-06T05:08:42.397Z,-4.34
2023-04-06T05:11:10.801Z,-4.43
2023-04-06T05:13:38.411Z,-4.18
2023-04-06T05:16:08.104Z,-4.06
2023-04-06T05:18:36.649Z,-4.06
2023-04-06T05:21:04.842Z,-4.06
2023-04-06T05:23:32.353Z,-4.05
2023-04-06T05:26:00.176Z,-4.16
2023-04-06T05:28:27.237Z,-4.06
2023-04-06T05:30:58.184Z,-4.09
2023-04-06T05:33:26.523Z,-3.95
2023-04-06T05:35:53.648Z,-4.13
2023-04-06T05:38:21.236Z,-4.19
2023-04-06T05:40:49.522Z,-4.12
2023-04-06T05:43:16.967Z,-3.94
2023-04-06T05:45:46.866Z,-3.80
2023-04-06T05:48:14.110Z,-3.72
2023-04-06T05:50:41.372Z,-3.64
2023-04-06T05:53:08.942Z,-3.67
2023-04-06T05:55:36.472Z,-3.56
2023-04-06T05:58:03.779Z,-3.51
2023-04-06T06:00:32.482Z,-3.33
2023-04-06T06:03:05.578Z,-3.18
2023-04-06T06:05:38.889Z,-3.03
2023-04-06T06:08:05.900Z,-2.93
2023-04-06T06:10:33.451Z,-2.77
2023-04-06T06:13:00.792Z,-2.59
2023-04-06T06:15:28.362Z,-2.34
2023-04-06T06:17:55.810Z,-2.18
2023-04-06T06:20:23.330Z,-1.96
2023-04-06T06:22:51.753Z,-1.80
2023-04-06T06:25:18.798Z,-1.73
2023-04-06T06:27:46.200Z,-1.59
2023-04-06T06:30:13.704Z,-1.43
2023-04-06T06:32:41.390Z,-1.31
2023-04-06T06:35:09.353Z,-1.13
2023-04-06T06:37:36.502Z,-0.93
2023-04-06T06:40:04.086Z,-0.88
2023-04-06T06:42:38.234Z,-0.75
2023-04-06T06:45:06.016Z,-0.61
2023-04-06T06:47:33.725Z,-0.46
2023-04-06T06:50:01.186Z,-0.31
2023-04-06T06:52:30.139Z,-0.18
2023-04-06T06:54:58.032Z,-0.05
2023-04-06T06:57:27.757Z,0.05
2023-04-06T06:59:54.991Z,0.23
2023-04-06T07:02:22.274Z,0.26
2023-04-06T07:04:51.018Z,0.44
2023-04-06T07:07:18.315Z,0.58
2023-04-06T07:09:45.747Z,0.68
2023-04-06T07:12:13.101Z,0.81
2023-04-06T07:14:40.799Z,0.97
2023-04-06T07:17:08.258Z,1.12
2023-04-06T07:19:35.454Z,1.30
2023-04-06T07:22:03.752Z,1.48
2023-04-06T07:24:30.990Z,1.60
2023-04-06T07:27:00.224Z,1.70
2023-04-06T07:29:27.940Z,1.85
2023-04-06T07:31:57.537Z,1.91
2023-04-06T07:34:25.888Z,2.02
2023-04-06T07:36:55.085Z,2.10
2023-04-06T07:39:22.263Z,2.21
2023-04-06T07:41:49.852Z,2.39
2023-04-06T07:44:18.353Z,2.39
2023-04-06T07:46:45.690Z,2.58
2023-04-06T07:49:13.590Z,2.76
2023-04-06T07:51:41.414Z,2.86
2023-04-06T07:54:08.868Z,2.85
2023-04-06T07:56:36.114Z,2.84
2023-04-06T07:59:04.303Z,2.98
2023-04-06T08:01:31.891Z,3.14
2023-04-06T08:03:59.751Z,3.17
2023-04-06T08:06:27.570Z,3.30
2023-04-06T08:08:55.371Z,3.38
2023-04-06T08:11:23.180Z,3.51
2023-04-06T08:13:51.498Z,3.67
2023-04-06T08:16:18.872Z,3.78
2023-04-06T08:18:48.344Z,4.00
2023-04-06T08:21:16.058Z,4.28
2023-04-06T08:23:44.613Z,4.50
2023-04-06T08:26:12.082Z,4.64
2023-04-06T08:28:39.597Z,4.75
2023-04-06T08:31:08.428Z,4.83
2023-04-06T08:33:40.445Z,4.91
2023-04-06T08:36:12.692Z,4.85
2023-04-06T08:38:41.343Z,4.84
2023-04-06T08:41:15.566Z,4.96
2023-04-06T08:43:50.654Z,4.93
2023-04-06T08:46:19.211Z,5.13
2023-04-06T08:48:47.430Z,5.19
2023-04-06T08:51:15.273Z,5.26
2023-04-06T08:53:43.373Z,5.31
2023-04-06T08:56:11.842Z,5.51
2023-04-06T08:58:41.834Z,5.64
2023-04-06T09:01:12.872Z,5.92
2023-04-06T09:03:42.143Z,6.06
2023-04-06T09:06:10.426Z,6.03
2023-04-06T09:08:40.590Z,5.96
2023-04-06T09:11:08.741Z,5.86
2023-04-06T09:13:51.301Z,6.07
2023-04-06T09:16:20.071Z,6.23
2023-04-06T09:18:48.284Z,6.29
2023-04-06T09:21:20.645Z,6.46
2023-04-06T09:23:59.541Z,6.76
2023-04-06T09:26:26.998Z,6.97
2023-04-06T09:28:58.935Z,7.33
2023-04-06T09:31:28.436Z,7.38
2023-04-06T09:33:56.584Z,7.39
2023-04-06T09:36:36.976Z,7.20
2023-04-06T09:39:06.250Z,6.77
2023-04-06T09:41:36.769Z,6.79
2023-04-06T09:44:12.736Z,6.86
2023-04-06T09:46:57.639Z,6.54
2023-04-06T09:49:29.604Z,6.51
2023-04-06T09:52:10.288Z,6.79
2023-04-06T09:54:39.889Z,7.00
2023-04-06T09:57:45.754Z,7.01
2023-04-06T10:00:20.342Z,7.12
2023-04-06T10:02:59.514Z,7.04
2023-04-06T10:05:44.076Z,7.04
2023-04-06T10:08:12.254Z,7.32
2023-04-06T10:10:39.784Z,7.62
2023-04-06T10:13:07.385Z,7.98
2023-04-06T10:15:36.153Z,8.22
2023-04-06T10:18:04.924Z,8.65
2023-04-06T10:21:10.290Z,9.32
2023-04-06T10:23:43.088Z,9.99
2023-04-06T10:26:17.625Z,10.29
2023-04-06T10:28:48.202Z,10.92
2023-04-06T10:31:16.030Z,10.89
2023-04-06T10:33:55.968Z,10.49
2023-04-06T10:36:26.868Z,10.61
2023-04-06T10:39:06.457Z,10.34
2023-04-06T10:41:43.537Z,10.24
2023-04-06T10:44:25.278Z,10.63
2023-04-06T10:47:02.986Z,11.52
2023-04-06T10:49:31.292Z,11.79
2023-04-06T10:51:59.065Z,11.88
2023-04-06T10:54:29.454Z,11.74
2023-04-06T10:56:57.844Z,11.82
2023-04-06T10:59:26.716Z,11.69
2023-04-06T11:01:57.197Z,11.75
2023-04-06T11:04:25.161Z,12.06
2023-04-06T11:06:52.316Z,12.27
2023-04-06T11:09:32.832Z,12.61
2023-04-06T11:12:00.093Z,11.77
2023-04-06T11:14:27.977Z,11.22
2023-04-06T11:16:55.379Z,11.48
2023-04-06T11:19:22.710Z,11.70
2023-04-06T11:21:50.805Z,11.81
2023-04-06T11:24:25.299Z,11.55
2023-04-06T11:27:02.265Z,11.43
2023-04-06T11:29:36.777Z,11.01
2023-04-06T11:32:06.986Z,10.73
2023-04-06T11:34:40.872Z,10.58
2023-04-06T11:37:13.515Z,11.01
2023-04-06T11:39:52.652Z,11.35
2023-04-06T11:42:29.497Z,11.66
2023-04-06T11:45:01.689Z,12.08
2023-04-06T11:47:37.800Z,12.32
2023-04-06T11:50:15.382Z,12.19
2023-04-06T11:52:43.937Z,12.15
2023-04-06T11:55:19.281Z,12.22
2023-04-06T11:57:46.806Z,11.22
2023-04-06T12:00:14.745Z,10.88
2023-04-06T12:02:47.654Z,11.29
2023-04-06T12:05:14.906Z,11.67
2023-04-06T12:10:09.690Z,12.90
2023-04-06T12:12:37.080Z,12.52
2023-04-06T12:15:06.384Z,12.19
2023-04-06T12:17:39.676Z,11.60
2023-04-06T12:20:18.074Z,11.57
2023-04-06T12:22:51.992Z,11.86
2023-04-06T12:25:19.163Z,11.34
2023-04-06T12:27:46.697Z,11.06
2023-04-06T12:30:15.342Z,11.21
2023-04-06T12:32:42.476Z,11.61
2023-04-06T12:35:12.832Z,12.11
2023-04-06T12:37:41.557Z,11.74
2023-04-06T12:40:11.819Z,11.42
2023-04-06T12:42:42.021Z,11.03
2023-04-06T12:45:10.259Z,10.81
2023-04-06T12:47:39.077Z,10.76
2023-04-06T12:50:07.882Z,10.49
2023-04-06T12:52:36.613Z,10.31
2023-04-06T12:55:06.400Z,10.29
2023-04-06T12:57:34.060Z,10.25
2023-04-06T13:00:01.544Z,10.16
2023-04-06T13:02:29.040Z,10.47
2023-04-06T13:04:56.365Z,10.48
2023-04-06T13:07:23.945Z,10.64
2023-04-06T13:09:52.826Z,10.59
2023-04-06T13:12:20.251Z,10.34
2023-04-06T13:14:52.196Z,10.02
2023-04-06T13:17:19.337Z,10.13
2023-04-06T13:19:46.826Z,10.20
2023-04-06T13:22:14.737Z,10.14
2023-04-06T13:24:42.207Z,10.02
2023-04-06T13:27:13.799Z,9.96
2023-04-06T13:29:41.344Z,9.84
2023-04-06T13:32:11.158Z,9.73
2023-04-06T13:34:38.775Z,9.51
2023-04-06T13:37:06.120Z,9.39
2023-04-06T13:39:33.701Z,9.29
2023-04-06T13:42:02.842Z,9.15
2023-04-06T13:44:31.997Z,9.13
2023-04-06T13:47:05.867Z,9.01
2023-04-06T13:49:33.935Z,9.04
2023-04-06T13:52:04.728Z,9.03
2023-04-06T13:54:34.099Z,9.01
2023-04-06T13:57:02.864Z,8.97
2023-04-06T13:59:40.518Z,8.95
2023-04-06T14:02:10.926Z,8.74
2023-04-06T14:04:38.550Z,8.91
2023-04-06T14:07:08.539Z,8.80
2023-04-06T14:09:35.901Z,8.73
2023-04-06T14:12:03.209Z,8.62
2023-04-06T14:14:30.767Z,8.73
2023-04-06T14:16:58.167Z,8.92
2023-04-06T14:19:25.697Z,8.97
2023-04-06T14:21:52.991Z,8.61
2023-04-06T14:24:22.502Z,8.60
2023-04-06T14:26:49.495Z,8.59
2023-04-06T14:29:17.963Z,8.54
2023-04-06T14:31:48.366Z,8.52
2023-04-06T14:34:17.146Z,8.49
2023-04-06T14:36:44.515Z,8.38
2023-04-06T14:39:11.892Z,8.53
2023-04-06T14:41:39.445Z,8.68
2023-04-06T14:44:06.913Z,8.71
2023-04-06T14:46:34.648Z,8.58
2023-04-06T14:49:02.250Z,8.57
2023-04-06T14:51:29.949Z,8.67
2023-04-06T14:53:57.718Z,8.58
2023-04-06T14:56:25.997Z,8.58
2023-04-06T14:58:55.096Z,8.42
2023-04-06T15:01:22.739Z,8.48
2023-04-06T15:03:50.486Z,8.36
2023-04-06T15:06:21.735Z,8.32
2023-04-06T15:08:50.588Z,8.13
2023-04-06T15:11:18.228Z,8.03
2023-04-06T15:13:45.595Z,8.06
2023-04-06T15:16:13.006Z,8.06
2023-04-06T15:18:40.757Z,8.14
2023-04-06T15:21:08.465Z,8.23
2023-04-06T15:23:35.983Z,8.24
2023-04-06T15:26:05.454Z,8.17
2023-04-06T15:28:32.481Z,8.18
2023-04-06T15:31:01.031Z,8.19
2023-04-06T15:33:34.487Z,8.22
2023-04-06T15:36:08.076Z,8.29
2023-04-06T15:38:35.192Z,8.24
2023-04-06T15:41:04.004Z,8.18
2023-04-06T15:43:31.531Z,8.20
2023-04-06T15:45:58.852Z,8.09
2023-04-06T15:48:26.310Z,8.19
2023-04-06T15:50:53.715Z,7.91
2023-04-06T15:53:21.194Z,7.91
2023-04-06T15:55:49.671Z,7.76
2023-04-06T15:58:17.187Z,7.59
2023-04-06T16:00:45.691Z,7.52
2023-04-06T16:03:13.352Z,7.43
2023-04-06T16:05:53.706Z,7.24
2023-04-06T16:08:26.999Z,7.43
2023-04-06T16:10:54.378Z,7.49
2023-04-06T16:13:28.283Z,7.45
2023-04-06T16:15:55.764Z,7.37
2023-04-06T16:18:24.023Z,7.24
2023-04-06T16:20:51.580Z,7.20
2023-04-06T16:23:18.941Z,7.26
2023-04-06T16:25:46.719Z,7.21
2023-04-06T16:28:14.394Z,7.15
2023-04-06T16:30:43.644Z,7.02
2023-04-06T16:33:13.375Z,6.98
2023-04-06T16:35:45.736Z,6.91
2023-04-06T16:38:13.858Z,6.91
2023-04-06T16:40:41.280Z,6.85
2023-04-06T16:43:10.223Z,6.83
2023-04-06T16:45:38.778Z,6.75
2023-04-06T16:48:06.935Z,6.78
2023-04-06T16:50:36.695Z,6.72
2023-04-06T16:53:04.271Z,6.75
2023-04-06T16:55:31.657Z,6.65
2023-04-06T16:57:59.128Z,6.56
2023-04-06T17:00:26.658Z,6.62
2023-04-06T17:02:54.306Z,6.61
2023-04-06T17:05:25.021Z,6.56
2023-04-06T17:07:52.608Z,6.56
2023-04-06T17:10:28.742Z,6.60
2023-04-06T17:13:06.395Z,6.45
2023-04-06T17:15:33.864Z,6.55
2023-04-06T17:18:02.857Z,6.57
2023-04-06T17:20:30.424Z,6.56
2023-04-06T17:22:57.687Z,6.47
2023-04-06T17:25:26.318Z,6.45
2023-04-06T17:27:53.567Z,6.38
2023-04-06T17:30:21.591Z,6.43
2023-04-06T17:32:49.113Z,6.32
2023-04-06T17:35:16.703Z,6.28
2023-04-06T17:37:46.068Z,6.36
2023-04-06T17:40:13.551Z,6.30
2023-04-06T17:42:40.961Z,6.28
2023-04-06T17:45:08.579Z,6.12
2023-04-06T17:47:36.367Z,6.21
2023-04-06T17:50:04.000Z,6.20
2023-04-06T17:52:32.202Z,6.21
2023-04-06T17:54:59.888Z,6.06
2023-04-06T17:57:27.798Z,5.98
2023-04-06T17:59:55.295Z,5.87
2023-04-06T18:02:23.193Z,5.73
2023-04-06T18:05:00.053Z,5.70
2023-04-06T18:07:27.265Z,5.65
2023-04-06T18:09:54.781Z,5.66
2023-04-06T18:12:22.364Z,5.65
2023-04-06T18:14:49.993Z,5.73
2023-04-06T18:17:17.172Z,5.70
2023-04-06T18:19:44.845Z,5.75
2023-04-06T18:22:12.352Z,5.75
2023-04-06T18:24:42.670Z,5.51
2023-04-06T18:27:14.008Z,5.45
2023-04-06T18:29:45.608Z,5.41
2023-04-06T18:32:15.878Z,5.37
2023-04-06T18:34:45.690Z,5.29
2023-04-06T18:37:15.073Z,5.27
2023-04-06T18:39:43.830Z,5.10
2023-04-06T18:42:11.388Z,5.01
2023-04-06T18:44:39.545Z,4.90
2023-04-06T18:47:07.210Z,5.02
2023-04-06T18:49:34.934Z,5.03
2023-04-06T18:52:03.615Z,5.06
2023-04-06T18:54:31.466Z,5.03
2023-04-06T18:56:59.222Z,5.14
2023-04-06T18:59:30.724Z,5.09
2023-04-06T19:01:59.563Z,5.06
2023-04-06T19:04:27.366Z,5.09
2023-04-06T19:06:55.985Z,4.97
2023-04-06T19:09:23.922Z,4.96
2023-04-06T19:11:51.666Z,4.88
2023-04-06T19:14:20.156Z,4.86
2023-04-06T19:16:52.622Z,4.92
2023-04-06T19:19:26.161Z,4.86
2023-04-06T19:21:53.660Z,4.85
2023-04-06T19:24:21.509Z,4.79
2023-04-06T19:26:50.030Z,4.66
2023-04-06T19:29:17.681Z,4.72
2023-04-06T19:31:47.146Z,4.68
2023-04-06T19:34:18.078Z,4.56
2023-04-06T19:36:46.633Z,4.46
2023-04-06T19:39:18.433Z,4.45
2023-04-06T19:41:47.780Z,4.49
2023-04-06T19:44:16.110Z,4.49
2023-04-06T19:46:46.612Z,4.43
2023-04-06T19:49:14.766Z,4.43
2023-04-06T19:51:48.179Z,4.34
2023-04-06T19:54:15.678Z,4.23
2023-04-06T19:56:43.151Z,4.25
2023-04-06T19:59:11.438Z,4.34
2023-04-06T20:01:39.244Z,4.28
2023-04-06T20:04:13.294Z,4.31
2023-04-06T20:06:40.767Z,4.19
2023-04-06T20:09:09.715Z,4.15
2023-04-06T20:11:37.829Z,3.88
2023-04-06T20:14:11.320Z,3.84
2023-04-06T20:16:38.584Z,3.82
2023-04-06T20:19:06.290Z,3.62
2023-04-06T20:21:36.860Z,3.63
2023-04-06T20:24:06.227Z,3.79
2023-04-06T20:26:33.639Z,3.76
2023-04-06T20:29:01.219Z,3.76
2023-04-06T20:31:29.191Z,3.81
2023-04-06T20:33:56.701Z,3.80
2023-04-06T20:36:28.233Z,3.93
2023-04-06T20:38:55.481Z,3.93
2023-04-06T20:41:23.298Z,3.86
2023-04-06T20:43:50.898Z,3.81
2023-04-06T20:46:18.597Z,3.83
2023-04-06T20:48:45.791Z,3.85
2023-04-06T20:51:25.794Z,3.80
2023-04-06T20:53:53.135Z,3.77
2023-04-06T20:56:27.765Z,3.76
2023-04-06T20:58:57.569Z,3.79
2023-04-06T21:01:25.284Z,3.73
2023-04-06T21:03:59.558Z,3.72
2023-04-06T21:06:28.780Z,3.72
2023-04-06T21:08:56.291Z,3.80
2023-04-06T21:11:23.580Z,3.74
2023-04-06T21:13:51.152Z,3.73
2023-04-06T21:16:18.588Z,3.66
2023-04-06T21:18:46.991Z,3.73
2023-04-06T21:21:14.627Z,3.77
2023-04-06T21:23:42.023Z,3.77
2023-04-06T21:26:12.800Z,3.74
2023-04-06T21:28:39.950Z,3.76
2023-04-06T21:31:08.993Z,3.79
2023-04-06T21:33:36.480Z,3.78
2023-04-06T21:36:08.356Z,3.78
2023-04-06T21:38:35.996Z,3.79
2023-04-06T21:41:03.913Z,3.79
2023-04-06T21:43:31.320Z,3.79
2023-04-06T21:45:58.759Z,3.78
2023-04-06T21:48:26.246Z,3.81
2023-04-06T21:50:53.703Z,3.77
2023-04-06T21:53:21.250Z,3.74
2023-04-06T21:55:51.341Z,3.71
2023-04-06T21:58:21.721Z,3.73
2023-04-06T22:00:49.180Z,3.69
2023-04-06T22:03:16.775Z,3.63
2023-04-06T22:05:44.163Z,3.57
2023-04-06T22:08:17.825Z,3.51
2023-04-06T22:10:53.303Z,3.52
2023-04-06T22:13:20.696Z,3.52
2023-04-06T22:15:49.315Z,3.49
2023-04-06T22:18:16.727Z,3.45
2023-04-06T22:20:44.736Z,3.42
2023-04-06T22:23:12.391Z,3.34
2023-04-06T22:25:39.708Z,3.25
2023-04-06T22:28:07.166Z,3.19
2023-04-06T22:30:34.477Z,3.16
2023-04-06T22:33:03.109Z,2.98
2023-04-06T22:35:30.521Z,2.96
2023-04-06T22:38:00.857Z,2.87
2023-04-06T22:40:29.376Z,2.86
2023-04-06T22:42:56.831Z,2.85
2023-04-06T22:45:26.324Z,2.87
2023-04-06T22:47:53.494Z,2.85
2023-04-06T22:50:22.194Z,2.89
2023-04-06T22:52:49.385Z,2.92
2023-04-06T22:55:16.750Z,2.93
2023-04-06T22:57:44.363Z,2.89
2023-04-06T23:00:13.982Z,2.80
2023-04-06T23:02:41.481Z,2.84
2023-04-06T23:05:09.361Z,2.77
2023-04-06T23:07:36.414Z,2.75
2023-04-06T23:10:08.036Z,2.69
2023-04-06T23:12:35.614Z,2.66
2023-04-06T23:15:02.966Z,2.59
2023-04-06T23:17:30.765Z,2.58
2023-04-06T23:20:04.698Z,2.55
2023-04-06T23:22:33.258Z,2.63
2023-04-06T23:25:00.641Z,2.62
2023-04-06T23:27:28.124Z,2.55
2023-04-06T23:29:56.525Z,2.50
2023-04-06T23:32:23.952Z,2.30
2023-04-06T23:34:52.404Z,2.35
2023-04-06T23:37:20.937Z,2.31
2023-04-06T23:39:48.726Z,2.26
2023-04-06T23:42:17.067Z,2.10
2023-04-06T23:44:44.323Z,2.10
2023-04-06T23:47:12.269Z,1.98
2023-04-06T23:49:40.752Z,1.83
2023-04-06T23:52:08.173Z,1.52
2023-04-06T23:54:35.921Z,1.20
2023-04-06T23:57:04.135Z,1.07
2023-04-06T23:59:31.636Z,0.85
